createdAt,value
2018-10-02T00:00:15.269Z,2.60
2018-10-02T00:01:19.959Z,2.17
2018-10-02T00:02:23.989Z,2.35
2018-10-02T00:03:28.182Z,2.62
2018-10-02T00:04:33.100Z,2.45
2018-10-02T00:05:38.115Z,2.50
2018-10-02T00:06:42.952Z,2.12
2018-10-02T00:07:47.573Z,2.95
2018-10-02T00:08:54.220Z,3.02
2018-10-02T00:09:58.252Z,2.25
2018-10-02T00:11:07.870Z,4.75
2018-10-02T00:12:17.422Z,2.20
2018-10-02T00:13:26.736Z,2.47
2018-10-02T00:14:31.522Z,2.95
2018-10-02T00:15:35.701Z,2.55
2018-10-02T00:16:39.793Z,2.00
2018-10-02T00:17:43.867Z,2.37
2018-10-02T00:18:48.040Z,2.30
2018-10-02T00:19:52.187Z,1.70
2018-10-02T00:20:56.214Z,2.45
2018-10-02T00:22:00.421Z,2.58
2018-10-02T00:23:05.552Z,2.00
2018-10-02T00:24:09.777Z,2.30
2018-10-02T00:25:13.972Z,2.05
2018-10-02T00:26:18.068Z,2.50
2018-10-02T00:27:22.162Z,2.83
2018-10-02T00:28:26.290Z,2.50
2018-10-02T00:29:32.387Z,2.20
2018-10-02T00:30:36.491Z,3.65
2018-10-02T00:31:41.201Z,2.30
2018-10-02T00:32:45.252Z,2.37
2018-10-02T00:33:49.801Z,2.33
2018-10-02T00:34:53.927Z,2.83
2018-10-02T00:35:58.012Z,2.42
2018-10-02T00:37:02.747Z,2.50
2018-10-02T00:38:08.108Z,2.60
2018-10-02T00:39:12.287Z,2.85
2018-10-02T00:40:16.824Z,1.90
2018-10-02T00:41:21.110Z,2.62
2018-10-02T00:42:28.990Z,2.42
2018-10-02T00:43:33.453Z,2.30
2018-10-02T00:44:37.585Z,2.33
2018-10-02T00:45:41.623Z,2.12
2018-10-02T00:46:45.830Z,2.22
2018-10-02T00:47:49.959Z,2.40
2018-10-02T00:48:54.100Z,2.30
2018-10-02T00:49:58.131Z,2.67
2018-10-02T00:51:02.375Z,2.40
2018-10-02T00:52:07.295Z,2.72
2018-10-02T00:53:11.491Z,2.67
2018-10-02T00:54:15.582Z,2.33
2018-10-02T00:55:19.627Z,2.58
2018-10-02T00:56:23.785Z,2.67
2018-10-02T00:57:27.916Z,2.65
2018-10-02T00:58:32.140Z,2.92
2018-10-02T01:00:46.436Z,2.80
2018-10-02T01:01:51.541Z,2.83
2018-10-02T01:02:56.197Z,2.70
2018-10-02T01:04:00.326Z,3.05
2018-10-02T01:05:04.520Z,2.90
2018-10-02T01:06:09.449Z,3.40
2018-10-02T01:07:14.421Z,2.90
2018-10-02T01:08:18.464Z,3.12
2018-10-02T01:09:22.698Z,2.33
2018-10-02T01:10:26.820Z,2.60
2018-10-02T01:11:31.466Z,2.60
2018-10-02T01:12:35.587Z,2.60
2018-10-02T01:13:44.074Z,3.35
2018-10-02T01:14:48.843Z,3.30
2018-10-02T01:15:53.439Z,2.65
2018-10-02T01:16:59.117Z,3.02
2018-10-02T01:18:04.058Z,4.00
2018-10-02T01:19:08.148Z,3.22
2018-10-02T01:20:12.294Z,2.75
2018-10-02T01:21:16.463Z,3.20
2018-10-02T01:22:20.623Z,3.00
2018-10-02T01:23:24.683Z,3.62
2018-10-02T01:24:28.810Z,3.47
2018-10-02T01:25:33.415Z,3.80
2018-10-02T01:26:37.829Z,3.15
2018-10-02T01:27:41.924Z,2.77
2018-10-02T01:28:46.002Z,3.58
2018-10-02T01:29:50.277Z,3.10
2018-10-02T01:30:55.185Z,3.52
2018-10-02T01:32:06.008Z,3.20
2018-10-02T01:33:10.307Z,3.08
2018-10-02T01:34:15.243Z,3.22
2018-10-02T01:35:20.154Z,3.92
2018-10-02T01:36:24.211Z,3.75
2018-10-02T01:37:28.350Z,3.98
2018-10-02T01:38:32.364Z,3.20
2018-10-02T01:39:36.496Z,3.40
2018-10-02T01:40:40.740Z,3.30
2018-10-02T01:41:44.830Z,3.22
2018-10-02T01:42:49.598Z,4.60
2018-10-02T01:43:54.786Z,3.90
2018-10-02T01:45:00.064Z,3.95
2018-10-02T01:46:04.523Z,3.60
2018-10-02T01:47:08.578Z,3.60
2018-10-02T01:48:12.688Z,4.03
2018-10-02T01:49:17.132Z,3.30
2018-10-02T01:50:21.324Z,3.95
2018-10-02T01:51:25.399Z,4.95
2018-10-02T01:52:30.184Z,3.65
2018-10-02T01:53:34.557Z,3.42
2018-10-02T01:54:38.545Z,3.40
2018-10-02T01:55:43.438Z,3.72
2018-10-02T01:56:47.513Z,3.37
2018-10-02T01:57:53.425Z,3.50
2018-10-02T01:58:57.557Z,3.95
2018-10-02T02:00:03.202Z,3.50
2018-10-02T02:01:07.338Z,3.70
2018-10-02T02:02:11.369Z,3.20
2018-10-02T02:03:15.567Z,3.87
2018-10-02T02:04:19.681Z,3.58
2018-10-02T02:05:23.835Z,3.55
2018-10-02T02:06:27.889Z,4.05
2018-10-02T02:07:33.665Z,4.00
2018-10-02T02:08:37.806Z,5.85
2018-10-02T02:09:42.606Z,4.50
2018-10-02T02:10:46.696Z,3.30
2018-10-02T02:11:50.927Z,4.67
2018-10-02T02:12:55.105Z,3.33
2018-10-02T02:13:59.843Z,5.03
2018-10-02T02:15:05.267Z,4.40
2018-10-02T02:16:10.168Z,3.90
2018-10-02T02:17:15.203Z,3.55
2018-10-02T02:18:19.537Z,4.03
2018-10-02T02:19:23.626Z,3.55
2018-10-02T02:20:27.778Z,3.65
2018-10-02T02:21:38.510Z,3.20
2018-10-02T02:22:42.912Z,4.08
2018-10-02T02:23:47.767Z,3.30
2018-10-02T02:24:52.814Z,3.47
2018-10-02T02:25:56.848Z,4.20
2018-10-02T02:27:01.720Z,3.37
2018-10-02T02:28:06.036Z,3.75
2018-10-02T02:29:11.418Z,3.80
2018-10-02T02:30:15.604Z,3.35
2018-10-02T02:31:19.650Z,3.67
2018-10-02T02:32:23.766Z,3.30
2018-10-02T02:33:27.810Z,4.75
2018-10-02T02:34:32.692Z,3.10
2018-10-02T02:35:37.510Z,3.40
2018-10-02T02:36:41.663Z,3.80
2018-10-02T02:37:45.727Z,4.25
2018-10-02T02:38:50.657Z,3.50
2018-10-02T02:39:54.780Z,3.02
2018-10-02T02:40:59.520Z,3.17
2018-10-02T02:42:03.711Z,3.10
2018-10-02T02:43:07.809Z,4.10
2018-10-02T02:44:12.857Z,3.80
2018-10-02T02:45:17.573Z,3.40
2018-10-02T02:46:22.537Z,3.25
2018-10-02T02:47:32.046Z,4.37
2018-10-02T02:48:41.423Z,3.50
2018-10-02T02:49:50.925Z,3.33
2018-10-02T02:51:00.534Z,3.55
2018-10-02T02:52:04.589Z,3.47
2018-10-02T02:53:13.888Z,3.80
2018-10-02T02:54:18.743Z,3.20
2018-10-02T02:55:22.872Z,2.95
2018-10-02T02:56:29.241Z,3.72
2018-10-02T02:57:33.667Z,3.60
2018-10-02T02:58:37.706Z,5.08
2018-10-02T02:59:43.511Z,3.42
2018-10-02T03:00:47.682Z,3.25
2018-10-02T03:01:52.089Z,3.25
2018-10-02T03:02:56.825Z,3.70
2018-10-02T03:04:00.891Z,3.47
2018-10-02T03:05:05.351Z,4.95
2018-10-02T03:06:09.790Z,3.60
2018-10-02T03:07:13.904Z,3.90
2018-10-02T03:08:18.829Z,4.25
2018-10-02T03:09:23.646Z,3.10
2018-10-02T03:10:27.857Z,3.55
2018-10-02T03:11:32.569Z,4.17
2018-10-02T03:12:38.303Z,3.80
2018-10-02T03:13:42.566Z,3.55
2018-10-02T03:14:46.684Z,5.53
2018-10-02T03:15:52.007Z,4.42
2018-10-02T03:16:56.192Z,3.92
2018-10-02T03:18:00.215Z,4.45
2018-10-02T03:19:04.338Z,4.20
2018-10-02T03:20:09.344Z,5.90
2018-10-02T03:21:13.535Z,4.65
2018-10-02T03:22:18.724Z,4.70
2018-10-02T03:23:23.102Z,3.72
2018-10-02T03:24:27.187Z,4.70
2018-10-02T03:25:31.357Z,3.22
2018-10-02T03:26:35.556Z,3.85
2018-10-02T03:27:39.699Z,4.37
2018-10-02T03:28:43.833Z,3.70
2018-10-02T03:29:48.825Z,5.95
2018-10-02T03:30:52.888Z,4.75
2018-10-02T03:31:57.130Z,4.10
2018-10-02T03:33:01.265Z,3.95
2018-10-02T03:34:05.444Z,3.70
2018-10-02T03:35:09.630Z,3.70
2018-10-02T03:36:14.521Z,3.62
2018-10-02T03:37:18.860Z,4.40
2018-10-02T03:38:23.061Z,3.60
2018-10-02T03:39:27.238Z,4.60
2018-10-02T03:40:31.844Z,4.00
2018-10-02T03:41:36.012Z,4.00
2018-10-02T03:42:40.148Z,6.95
2018-10-02T03:43:44.374Z,4.15
2018-10-02T03:44:48.464Z,3.90
2018-10-02T03:45:52.811Z,4.25
2018-10-02T03:46:57.396Z,3.12
2018-10-02T03:48:02.099Z,3.80
2018-10-02T03:49:06.442Z,4.50
2018-10-02T03:50:10.576Z,5.65
2018-10-02T03:51:14.774Z,3.30
2018-10-02T03:52:18.899Z,3.92
2018-10-02T03:53:23.044Z,3.75
2018-10-02T03:54:28.340Z,4.00
2018-10-02T03:55:32.350Z,3.50
2018-10-02T03:56:37.048Z,6.67
2018-10-02T03:57:42.043Z,4.35
2018-10-02T03:58:47.026Z,4.35
2018-10-02T03:59:51.466Z,3.25
2018-10-02T04:00:55.609Z,3.60
2018-10-02T04:01:59.645Z,3.90
2018-10-02T04:03:04.863Z,4.37
2018-10-02T04:04:08.980Z,4.37
2018-10-02T04:05:13.170Z,3.60
2018-10-02T04:06:17.433Z,4.35
2018-10-02T04:07:21.768Z,3.80
2018-10-02T04:08:25.783Z,3.80
2018-10-02T04:09:30.853Z,4.03
2018-10-02T04:10:35.568Z,3.85
2018-10-02T04:11:39.884Z,4.03
2018-10-02T04:12:43.916Z,3.05
2018-10-02T04:13:48.006Z,4.22
2018-10-02T04:14:53.803Z,4.03
2018-10-02T04:15:59.250Z,3.47
2018-10-02T04:17:04.733Z,3.67
2018-10-02T04:18:09.453Z,3.87
2018-10-02T04:19:14.670Z,3.60
2018-10-02T04:20:18.859Z,3.05
2018-10-02T04:21:28.272Z,3.30
2018-10-02T04:22:32.827Z,3.90
2018-10-02T04:23:36.931Z,4.10
2018-10-02T04:24:41.186Z,3.40
2018-10-02T04:25:45.870Z,4.03
2018-10-02T04:26:50.628Z,4.12
2018-10-02T04:27:54.831Z,3.37
2018-10-02T04:28:59.119Z,4.22
2018-10-02T04:30:03.277Z,3.95
2018-10-02T04:31:07.783Z,3.60
2018-10-02T04:32:11.900Z,4.40
2018-10-02T04:33:16.075Z,3.85
2018-10-02T04:34:20.147Z,2.95
2018-10-02T04:35:24.899Z,3.60
2018-10-02T04:36:29.753Z,3.62
2018-10-02T04:37:33.997Z,3.77
2018-10-02T04:38:38.007Z,4.30
2018-10-02T04:39:42.128Z,4.53
2018-10-02T04:40:46.898Z,2.80
2018-10-02T04:41:51.199Z,3.85
2018-10-02T04:42:57.661Z,4.35
2018-10-02T04:44:01.839Z,4.45
2018-10-02T04:45:06.754Z,4.00
2018-10-02T04:46:10.932Z,3.52
2018-10-02T04:47:15.690Z,3.08
2018-10-02T04:48:19.939Z,3.10
2018-10-02T04:49:24.097Z,2.83
2018-10-02T04:50:28.329Z,3.60
2018-10-02T04:51:32.442Z,3.17
2018-10-02T04:52:40.798Z,3.35
2018-10-02T04:53:45.700Z,2.72
2018-10-02T04:54:51.008Z,4.20
2018-10-02T04:55:56.475Z,3.40
2018-10-02T04:57:00.640Z,3.20
2018-10-02T04:58:04.766Z,3.30
2018-10-02T04:59:08.937Z,3.30
2018-10-02T05:00:13.070Z,4.35
2018-10-02T05:01:17.218Z,4.80
2018-10-02T05:02:21.417Z,4.00
2018-10-02T05:03:25.501Z,4.42
2018-10-02T05:04:29.672Z,3.80
2018-10-02T05:05:33.771Z,4.90
2018-10-02T05:06:40.136Z,4.42
2018-10-02T05:07:44.934Z,4.80
2018-10-02T05:08:49.003Z,5.30
2018-10-02T05:09:53.072Z,4.15
2018-10-02T05:10:57.279Z,4.25
2018-10-02T05:12:01.427Z,3.85
2018-10-02T05:13:06.237Z,3.25
2018-10-02T05:14:10.602Z,3.58
2018-10-02T05:15:14.635Z,3.15
2018-10-02T05:16:19.392Z,3.35
2018-10-02T05:17:24.840Z,3.55
2018-10-02T05:18:28.962Z,3.20
2018-10-02T05:19:32.976Z,3.75
2018-10-02T05:20:37.276Z,3.52
2018-10-02T05:21:41.340Z,3.45
2018-10-02T05:22:45.510Z,3.10
2018-10-02T05:23:49.515Z,3.58
2018-10-02T05:24:54.581Z,6.10
2018-10-02T05:25:59.309Z,3.50
2018-10-02T05:27:03.435Z,3.80
2018-10-02T05:28:08.395Z,4.30
2018-10-02T05:29:12.843Z,3.95
2018-10-02T05:30:17.274Z,3.55
2018-10-02T05:31:21.353Z,3.27
2018-10-02T05:32:25.610Z,3.33
2018-10-02T05:33:29.797Z,4.72
2018-10-02T05:34:33.936Z,4.08
2018-10-02T05:35:38.219Z,3.15
2018-10-02T05:36:42.224Z,3.75
2018-10-02T05:37:46.742Z,3.35
2018-10-02T05:38:51.924Z,3.55
2018-10-02T05:39:56.031Z,4.95
2018-10-02T05:41:00.201Z,3.50
2018-10-02T05:42:05.438Z,3.50
2018-10-02T05:43:09.543Z,4.12
2018-10-02T05:44:13.731Z,3.60
2018-10-02T05:45:18.570Z,3.45
2018-10-02T05:46:22.986Z,3.70
2018-10-02T05:47:27.134Z,3.55
2018-10-02T05:48:31.374Z,3.55
2018-10-02T05:49:35.431Z,3.27
2018-10-02T05:50:40.134Z,3.17
2018-10-02T05:51:44.166Z,2.98
2018-10-02T05:52:48.596Z,3.30
2018-10-02T05:53:53.555Z,3.12
2018-10-02T05:54:59.679Z,3.80
2018-10-02T05:56:03.953Z,3.35
2018-10-02T05:57:08.202Z,3.33
2018-10-02T05:58:12.527Z,4.17
2018-10-02T05:59:17.369Z,3.15
2018-10-02T06:00:21.425Z,2.75
2018-10-02T06:01:25.497Z,2.90
2018-10-02T06:02:31.207Z,2.70
2018-10-02T06:03:35.939Z,3.00
2018-10-02T06:04:40.597Z,3.05
2018-10-02T06:05:45.259Z,2.42
2018-10-02T06:06:49.470Z,2.40
2018-10-02T06:07:53.545Z,4.20
2018-10-02T06:08:57.700Z,3.85
2018-10-02T06:10:02.735Z,2.80
2018-10-02T06:11:07.070Z,2.75
2018-10-02T06:12:11.274Z,4.25
2018-10-02T06:13:15.396Z,2.80
2018-10-02T06:14:19.474Z,2.33
2018-10-02T06:15:23.630Z,2.60
2018-10-02T06:16:27.760Z,2.85
2018-10-02T06:17:32.926Z,2.65
2018-10-02T06:18:37.113Z,2.30
2018-10-02T06:19:41.843Z,2.80
2018-10-02T06:20:46.153Z,3.00
2018-10-02T06:21:50.400Z,3.00
2018-10-02T06:22:54.922Z,2.65
2018-10-02T06:23:59.555Z,2.75
2018-10-02T06:28:20.623Z,2.75
2018-10-02T06:29:24.664Z,3.30
2018-10-02T06:30:29.411Z,3.40
2018-10-02T06:31:33.670Z,3.30
2018-10-02T06:32:37.969Z,2.83
2018-10-02T06:33:42.123Z,3.00
2018-10-02T06:34:46.322Z,4.50
2018-10-02T06:35:50.946Z,3.92
2018-10-02T06:36:58.360Z,2.45
2018-10-02T06:38:02.627Z,2.87
2018-10-02T06:39:07.675Z,2.75
2018-10-02T06:40:12.916Z,2.58
2018-10-02T06:41:17.344Z,2.62
2018-10-02T06:42:22.363Z,2.80
2018-10-02T06:43:27.310Z,2.55
2018-10-02T06:44:32.380Z,3.33
2018-10-02T06:45:36.716Z,2.95
2018-10-02T06:46:41.835Z,2.75
2018-10-02T06:47:45.838Z,2.77
2018-10-02T06:48:51.697Z,2.90
2018-10-02T06:49:56.063Z,2.60
2018-10-02T06:51:00.300Z,2.70
2018-10-02T06:52:04.660Z,3.05
2018-10-02T06:53:08.666Z,2.50
2018-10-02T06:54:12.826Z,2.35
2018-10-02T06:55:16.962Z,2.92
2018-10-02T06:56:21.925Z,3.25
2018-10-02T06:57:26.005Z,2.87
2018-10-02T06:58:32.247Z,3.37
2018-10-02T06:59:36.666Z,3.75
2018-10-02T07:00:40.854Z,2.98
2018-10-02T07:01:44.861Z,2.90
2018-10-02T07:02:49.504Z,3.37
2018-10-02T07:03:53.713Z,3.25
2018-10-02T07:04:57.848Z,3.42
2018-10-02T07:06:03.052Z,2.70
2018-10-02T07:07:07.195Z,2.95
2018-10-02T07:08:11.890Z,2.77
2018-10-02T07:09:16.213Z,2.62
2018-10-02T07:10:21.468Z,3.22
2018-10-02T07:11:26.866Z,3.05
2018-10-02T07:12:31.034Z,2.92
2018-10-02T07:13:36.357Z,3.47
2018-10-02T07:14:40.644Z,2.58
2018-10-02T07:15:44.641Z,3.80
2018-10-02T07:16:48.994Z,2.50
2018-10-02T07:17:53.058Z,2.90
2018-10-02T07:18:57.340Z,3.17
2018-10-02T07:20:02.213Z,2.90
2018-10-02T07:21:06.884Z,3.45
2018-10-02T07:22:11.413Z,3.47
2018-10-02T07:23:16.923Z,2.72
2018-10-02T07:24:21.700Z,2.80
2018-10-02T07:25:25.833Z,3.00
2018-10-02T07:26:31.045Z,3.30
2018-10-02T07:27:35.188Z,2.80
2018-10-02T07:28:39.325Z,2.95
2018-10-02T07:29:43.481Z,2.52
2018-10-02T07:30:48.714Z,2.85
2018-10-02T07:31:53.584Z,3.33
2018-10-02T07:32:57.854Z,2.72
2018-10-02T07:34:02.721Z,2.90
2018-10-02T07:35:07.983Z,2.65
2018-10-02T07:36:12.175Z,3.12
2018-10-02T07:37:16.246Z,3.02
2018-10-02T07:38:20.476Z,2.80
2018-10-02T07:39:24.660Z,2.90
2018-10-02T07:40:28.833Z,3.02
2018-10-02T07:41:34.037Z,3.33
2018-10-02T07:42:38.513Z,3.65
2018-10-02T07:43:43.367Z,2.83
2018-10-02T07:44:49.241Z,3.58
2018-10-02T07:45:53.666Z,2.67
2018-10-02T07:46:58.380Z,2.75
2018-10-02T07:48:03.511Z,2.52
2018-10-02T07:49:07.558Z,2.30
2018-10-02T07:50:12.878Z,2.75
2018-10-02T07:51:16.963Z,3.35
2018-10-02T07:52:21.174Z,3.70
2018-10-02T07:53:26.978Z,2.20
2018-10-02T07:54:31.677Z,2.80
2018-10-02T07:55:36.521Z,2.55
2018-10-02T07:56:40.659Z,2.67
2018-10-02T07:57:44.633Z,3.22
2018-10-02T07:58:48.793Z,3.15
2018-10-02T07:59:53.535Z,2.00
2018-10-02T08:00:59.550Z,2.80
2018-10-02T08:02:03.765Z,3.00
2018-10-02T08:03:08.157Z,3.12
2018-10-02T08:04:12.249Z,2.65
2018-10-02T08:05:16.525Z,2.87
2018-10-02T08:06:20.492Z,2.60
2018-10-02T08:07:26.398Z,2.77
2018-10-02T08:08:30.523Z,2.65
2018-10-02T08:09:35.891Z,2.65
2018-10-02T08:10:40.393Z,3.20
2018-10-02T08:11:44.666Z,3.70
2018-10-02T08:12:48.691Z,4.00
2018-10-02T08:13:54.742Z,3.22
2018-10-02T08:14:58.961Z,3.30
2018-10-02T08:16:05.877Z,4.28
2018-10-02T08:17:10.461Z,3.55
2018-10-02T08:18:15.238Z,4.78
2018-10-02T08:19:19.388Z,3.52
2018-10-02T08:20:23.439Z,2.70
2018-10-02T08:21:28.945Z,5.65
2018-10-02T08:22:32.988Z,3.62
2018-10-02T08:23:38.244Z,2.77
2018-10-02T08:24:42.424Z,2.87
2018-10-02T08:25:48.290Z,2.40
2018-10-02T08:26:52.638Z,2.70
2018-10-02T08:27:57.668Z,2.60
2018-10-02T08:29:08.090Z,2.47
2018-10-02T08:30:12.390Z,2.65
2018-10-02T08:31:16.370Z,2.65
2018-10-02T08:32:20.626Z,2.80
2018-10-02T08:33:24.775Z,2.75
2018-10-02T08:34:29.211Z,3.08
2018-10-02T08:35:33.620Z,4.50
2018-10-02T08:36:37.761Z,3.37
2018-10-02T08:37:43.352Z,3.17
2018-10-02T08:38:47.566Z,3.17
2018-10-02T08:39:51.861Z,2.90
2018-10-02T08:40:55.908Z,2.85
2018-10-02T08:42:00.172Z,2.87
2018-10-02T08:43:04.264Z,2.25
2018-10-02T08:44:08.948Z,2.65
2018-10-02T08:45:14.008Z,2.62
2018-10-02T08:46:18.310Z,3.12
2018-10-02T08:47:22.381Z,2.30
2018-10-02T08:48:26.540Z,3.52
2018-10-02T08:49:30.905Z,3.12
2018-10-02T08:50:35.287Z,2.98
2018-10-02T08:51:39.520Z,3.15
2018-10-02T08:52:43.656Z,2.87
2018-10-02T08:53:48.061Z,2.62
2018-10-02T08:54:52.737Z,2.75
2018-10-02T08:55:57.372Z,3.87
2018-10-02T08:57:02.689Z,2.67
2018-10-02T08:58:06.885Z,2.77
2018-10-02T08:59:11.873Z,2.42
2018-10-02T09:00:16.144Z,3.55
2018-10-02T09:01:20.177Z,3.17
2018-10-02T09:02:24.394Z,3.20
2018-10-02T09:03:28.640Z,2.92
2018-10-02T09:04:32.791Z,2.95
2018-10-02T09:05:36.930Z,2.80
2018-10-02T09:06:41.202Z,3.80
2018-10-02T09:07:45.268Z,3.10
2018-10-02T09:08:49.559Z,4.08
2018-10-02T09:09:54.853Z,3.42
2018-10-02T09:10:58.945Z,4.78
2018-10-02T09:12:03.282Z,3.42
2018-10-02T09:13:14.001Z,3.12
2018-10-02T09:14:18.104Z,3.45
2018-10-02T09:15:22.364Z,3.50
2018-10-02T09:16:26.836Z,3.20
2018-10-02T09:17:31.863Z,3.33
2018-10-02T09:18:36.222Z,3.37
2018-10-02T09:19:40.256Z,3.58
2018-10-02T09:20:44.648Z,3.05
2018-10-02T09:21:48.700Z,4.40
2018-10-02T09:22:53.731Z,3.77
2018-10-02T09:23:58.692Z,3.83
2018-10-02T09:25:02.942Z,3.83
2018-10-02T09:26:07.039Z,3.47
2018-10-02T09:27:11.235Z,3.22
2018-10-02T09:28:16.539Z,3.20
2018-10-02T09:29:21.715Z,3.50
2018-10-02T09:31:34.889Z,3.50
2018-10-02T09:32:45.772Z,4.00
2018-10-02T09:33:56.172Z,3.90
2018-10-02T09:35:06.040Z,4.60
2018-10-02T09:36:16.408Z,6.10
2018-10-02T09:37:26.114Z,6.70
2018-10-02T09:38:35.583Z,6.72
2018-10-02T09:39:44.954Z,6.92
2018-10-02T09:40:55.166Z,6.53
2018-10-02T09:42:05.808Z,9.65
2018-10-02T09:43:15.473Z,10.25
2018-10-02T09:44:19.561Z,11.10
2018-10-02T09:45:23.705Z,9.50
2018-10-02T09:46:28.191Z,9.50
2018-10-02T09:47:33.766Z,4.95
2018-10-02T09:48:37.903Z,4.70
2018-10-02T09:49:43.205Z,4.55
2018-10-02T09:50:47.266Z,4.10
2018-10-02T09:51:52.741Z,3.90
2018-10-02T09:52:56.757Z,4.78
2018-10-02T09:54:00.976Z,5.05
2018-10-02T09:55:05.883Z,4.53
2018-10-02T09:56:10.776Z,4.35
2018-10-02T09:57:15.050Z,4.25
2018-10-02T09:58:19.185Z,3.17
2018-10-02T09:59:24.041Z,3.17
2018-10-02T10:00:33.497Z,3.45
2018-10-02T10:01:43.014Z,3.72
2018-10-02T10:02:51.313Z,3.12
2018-10-02T10:03:55.447Z,3.72
2018-10-02T10:04:59.860Z,4.10
2018-10-02T10:06:04.024Z,3.30
2018-10-02T10:07:08.178Z,3.42
2018-10-02T10:08:12.326Z,5.00
2018-10-02T10:09:16.453Z,4.60
2018-10-02T10:10:21.298Z,4.30
2018-10-02T10:12:46.379Z,5.47
2018-10-02T10:13:50.621Z,3.98
2018-10-02T10:14:54.801Z,4.67
2018-10-02T10:16:01.537Z,4.50
2018-10-02T10:17:05.841Z,4.70
2018-10-02T10:18:10.496Z,5.10
2018-10-02T10:19:14.994Z,5.25
2018-10-02T10:20:19.126Z,5.15
2018-10-02T10:21:23.290Z,4.60
2018-10-02T10:22:27.372Z,4.62
2018-10-02T10:23:31.416Z,5.20
2018-10-02T10:24:35.621Z,4.80
2018-10-02T10:25:39.765Z,3.95
2018-10-02T10:26:43.940Z,5.00
2018-10-02T10:27:48.118Z,4.00
2018-10-02T10:28:54.061Z,3.40
2018-10-02T10:29:58.750Z,3.50
2018-10-02T10:31:02.884Z,3.65
2018-10-02T10:32:07.337Z,4.55
2018-10-02T10:33:17.850Z,3.80
2018-10-02T10:34:21.950Z,3.15
2018-10-02T10:35:26.228Z,4.08
2018-10-02T10:36:30.933Z,3.95
2018-10-02T10:37:35.084Z,3.42
2018-10-02T10:38:39.186Z,4.08
2018-10-02T10:39:43.352Z,3.92
2018-10-02T10:40:47.615Z,3.65
2018-10-02T10:41:51.735Z,3.60
2018-10-02T10:42:55.873Z,3.77
2018-10-02T10:44:01.728Z,3.75
2018-10-02T10:45:07.297Z,4.75
2018-10-02T10:46:11.992Z,4.37
2018-10-02T10:47:16.079Z,3.72
2018-10-02T10:48:20.214Z,4.15
2018-10-02T10:49:24.857Z,5.28
2018-10-02T10:50:29.062Z,5.58
2018-10-02T10:51:33.231Z,5.10
2018-10-02T10:52:37.563Z,5.47
2018-10-02T10:53:41.607Z,5.75
2018-10-02T10:54:57.405Z,5.30
2018-10-02T10:56:01.587Z,5.08
2018-10-02T10:57:06.357Z,4.50
2018-10-02T10:58:11.240Z,4.87
2018-10-02T10:59:15.892Z,4.67
2018-10-02T11:00:20.612Z,5.70
2018-10-02T11:01:24.706Z,5.28
2018-10-02T11:02:29.933Z,5.05
2018-10-02T11:03:34.140Z,5.25
2018-10-02T11:04:39.018Z,4.80
2018-10-02T11:05:43.103Z,5.03
2018-10-02T11:06:47.306Z,5.67
2018-10-02T11:07:52.372Z,4.35
2018-10-02T11:08:56.532Z,4.78
2018-10-02T11:10:00.618Z,5.65
2018-10-02T11:11:05.314Z,6.37
2018-10-02T11:12:09.492Z,5.72
2018-10-02T11:13:13.725Z,6.17
2018-10-02T11:14:20.086Z,5.50
2018-10-02T11:15:25.252Z,6.30
2018-10-02T11:16:30.030Z,6.70
2018-10-02T11:17:34.275Z,6.62
2018-10-02T11:18:38.587Z,6.17
2018-10-02T11:19:42.782Z,5.95
2018-10-02T11:20:48.621Z,8.33
2018-10-02T11:21:54.172Z,5.72
2018-10-02T11:22:58.389Z,4.60
2018-10-02T11:24:03.566Z,3.75
2018-10-02T11:25:07.760Z,3.80
2018-10-02T11:26:11.987Z,3.52
2018-10-02T11:27:16.173Z,3.72
2018-10-02T11:28:23.320Z,4.00
2018-10-02T11:29:27.833Z,4.22
2018-10-02T11:30:32.067Z,4.55
2018-10-02T11:31:36.731Z,3.45
2018-10-02T11:32:41.509Z,3.52
2018-10-02T11:33:45.619Z,3.52
2018-10-02T11:34:49.779Z,3.90
2018-10-02T11:35:54.024Z,4.55
2018-10-02T11:36:58.190Z,3.90
2018-10-02T11:38:02.357Z,3.95
2018-10-02T11:39:07.007Z,3.35
2018-10-02T11:40:11.179Z,3.85
2018-10-02T11:41:15.246Z,3.70
2018-10-02T11:42:19.383Z,4.03
2018-10-02T11:43:23.577Z,3.65
2018-10-02T11:44:27.715Z,4.10
2018-10-02T11:45:32.338Z,3.77
2018-10-02T11:46:36.507Z,4.15
2018-10-02T11:47:40.612Z,4.03
2018-10-02T11:48:44.954Z,3.90
2018-10-02T11:49:49.222Z,4.17
2018-10-02T11:50:53.300Z,3.80
2018-10-02T11:51:57.424Z,4.10
2018-10-02T11:53:01.592Z,4.55
2018-10-02T11:54:05.665Z,4.70
2018-10-02T11:55:09.769Z,4.08
2018-10-02T11:56:14.845Z,4.65
2018-10-02T11:57:19.747Z,4.67
2018-10-02T11:58:23.873Z,4.30
2018-10-02T11:59:28.037Z,4.08
2018-10-02T12:00:32.343Z,5.08
2018-10-02T12:01:36.390Z,4.33
2018-10-02T12:02:40.525Z,4.58
2018-10-02T12:03:44.586Z,4.65
2018-10-02T12:04:48.818Z,5.15
2018-10-02T12:05:53.031Z,4.58
2018-10-02T12:06:57.959Z,4.67
2018-10-02T12:08:02.251Z,4.80
2018-10-02T12:09:07.760Z,4.15
2018-10-02T12:10:11.811Z,4.15
2018-10-02T12:11:16.554Z,4.40
2018-10-02T12:12:20.872Z,4.55
2018-10-02T12:13:26.265Z,4.55
2018-10-02T12:14:30.374Z,4.70
2018-10-02T12:15:36.806Z,4.30
2018-10-02T12:16:41.925Z,4.30
2018-10-02T12:17:46.867Z,4.00
2018-10-02T12:18:52.164Z,4.20
2018-10-02T12:19:57.282Z,4.10
2018-10-02T12:21:01.737Z,4.50
2018-10-02T12:22:06.344Z,3.90
2018-10-02T12:23:10.718Z,4.75
2018-10-02T12:24:14.880Z,4.15
2018-10-02T12:25:19.119Z,4.20
2018-10-02T12:26:23.191Z,4.40
2018-10-02T12:27:27.382Z,4.28
2018-10-02T12:28:31.609Z,4.17
2018-10-02T12:29:36.016Z,4.00
2018-10-02T12:31:49.657Z,4.15
2018-10-02T12:32:53.830Z,5.17
2018-10-02T12:33:58.738Z,3.85
2018-10-02T12:35:03.260Z,3.98
2018-10-02T12:36:07.408Z,4.80
2018-10-02T12:37:11.509Z,4.75
2018-10-02T12:38:15.709Z,4.08
2018-10-02T12:39:19.902Z,4.17
2018-10-02T12:40:24.038Z,4.30
2018-10-02T12:41:28.231Z,4.15
2018-10-02T12:42:32.407Z,4.60
2018-10-02T12:43:36.700Z,5.20
2018-10-02T12:44:40.908Z,5.65
2018-10-02T12:45:44.999Z,4.65
2018-10-02T12:46:49.290Z,4.70
2018-10-02T12:47:54.010Z,5.30
2018-10-02T12:48:58.152Z,5.55
2018-10-02T12:50:02.283Z,4.90
2018-10-02T12:51:06.545Z,4.62
2018-10-02T12:52:12.192Z,4.87
2018-10-02T12:53:16.238Z,4.92
2018-10-02T12:54:20.260Z,4.33
2018-10-02T12:55:25.322Z,5.10
2018-10-02T12:56:29.425Z,5.35
2018-10-02T12:57:40.468Z,5.35
2018-10-02T12:58:44.555Z,5.72
2018-10-02T12:59:49.305Z,5.55
2018-10-02T13:00:54.577Z,4.90
2018-10-02T13:01:58.674Z,5.58
2018-10-02T13:03:03.410Z,6.12
2018-10-02T13:04:07.658Z,5.15
2018-10-02T13:05:11.841Z,5.28
2018-10-02T13:06:15.948Z,5.58
2018-10-02T13:07:20.057Z,5.33
2018-10-02T13:08:24.233Z,6.17
2018-10-02T13:09:28.336Z,5.70
2018-10-02T13:10:32.523Z,6.10
2018-10-02T13:11:36.720Z,5.47
2018-10-02T13:12:40.778Z,6.58
2018-10-02T13:13:45.986Z,5.90
2018-10-02T13:14:50.296Z,5.87
2018-10-02T13:15:54.400Z,6.72
2018-10-02T13:16:58.744Z,6.00
2018-10-02T13:18:03.160Z,6.40
2018-10-02T13:19:07.990Z,5.75
2018-10-02T13:20:12.593Z,5.20
2018-10-02T13:21:17.122Z,5.65
2018-10-02T13:22:21.343Z,6.05
2018-10-02T13:23:25.458Z,6.10
2018-10-02T13:24:29.677Z,5.87
2018-10-02T13:25:34.905Z,6.30
2018-10-02T13:26:39.505Z,6.15
2018-10-02T13:27:43.724Z,6.80
2018-10-02T13:28:47.868Z,5.65
2018-10-02T13:29:52.760Z,6.25
2018-10-02T13:30:57.541Z,5.90
2018-10-02T13:32:02.857Z,7.12
2018-10-02T13:33:07.277Z,7.00
2018-10-02T13:34:11.326Z,6.15
2018-10-02T13:35:15.601Z,6.20
2018-10-02T13:36:21.497Z,6.67
2018-10-02T13:37:25.775Z,6.78
2018-10-02T13:38:30.004Z,6.80
2018-10-02T13:39:34.225Z,6.08
2018-10-02T13:40:38.543Z,7.60
2018-10-02T13:41:42.769Z,7.10
2018-10-02T13:42:47.450Z,7.05
2018-10-02T13:43:51.605Z,6.62
2018-10-02T13:44:56.945Z,7.28
2018-10-02T13:46:01.570Z,7.40
2018-10-02T13:47:07.164Z,6.45
2018-10-02T13:48:11.800Z,6.78
2018-10-02T13:49:15.813Z,7.00
2018-10-02T13:50:19.996Z,7.65
2018-10-02T13:51:25.907Z,7.80
2018-10-02T13:52:30.165Z,8.03
2018-10-02T13:53:34.346Z,7.60
2018-10-02T13:54:38.595Z,7.62
2018-10-02T13:55:43.460Z,7.08
2018-10-02T13:56:47.583Z,8.15
2018-10-02T13:57:52.394Z,8.18
2018-10-02T13:58:56.526Z,7.10
2018-10-02T14:00:01.450Z,8.38
2018-10-02T14:01:06.827Z,7.15
2018-10-02T14:02:11.133Z,7.70
2018-10-02T14:03:15.357Z,7.47
2018-10-02T14:04:19.520Z,7.30
2018-10-02T14:05:26.375Z,7.65
2018-10-02T14:06:30.578Z,7.95
2018-10-02T14:07:34.775Z,7.95
2018-10-02T14:08:40.641Z,8.60
2018-10-02T14:09:46.532Z,8.00
2018-10-02T14:10:52.775Z,7.80
2018-10-02T14:11:57.247Z,7.83
2018-10-02T14:13:01.918Z,8.35
2018-10-02T14:14:06.143Z,8.75
2018-10-02T14:15:11.119Z,9.00
2018-10-02T14:16:17.091Z,8.95
2018-10-02T14:17:22.149Z,8.70
2018-10-02T14:18:26.358Z,8.78
2018-10-02T14:19:31.136Z,9.18
2018-10-02T14:20:35.275Z,8.95
2018-10-02T14:21:39.788Z,8.70
2018-10-02T14:22:45.577Z,10.00
2018-10-02T14:23:50.497Z,9.43
2018-10-02T14:24:54.967Z,9.30
2018-10-02T14:25:59.127Z,9.78
2018-10-02T14:27:03.222Z,9.58
2018-10-02T14:28:08.326Z,9.98
2018-10-02T14:29:12.527Z,9.80